createdAt,value
2019-04-19T00:01:22.670Z,4.40
2019-04-19T00:03:53.294Z,4.80
2019-04-19T00:06:31.621Z,4.93
2019-04-19T00:09:13.501Z,5.33
2019-04-19T00:11:37.638Z,5.10
2019-04-19T00:14:00.325Z,4.80
2019-04-19T00:16:29.899Z,5.03
2019-04-19T00:19:19.719Z,4.90
2019-04-19T00:21:54.522Z,4.50
2019-04-19T00:24:01.750Z,5.37
2019-04-19T00:26:33.863Z,5.20
2019-04-19T00:29:06.784Z,5.00
2019-04-19T00:31:45.228Z,5.30
2019-04-19T00:34:06.257Z,5.40
2019-04-19T00:36:36.342Z,5.03
2019-04-19T00:39:23.730Z,5.10
2019-04-19T00:42:01.533Z,5.07
2019-04-19T00:44:43.078Z,4.47
2019-04-19T00:47:06.718Z,5.13
2019-04-19T00:49:30.912Z,4.80
2019-04-19T00:52:05.470Z,4.13
2019-04-19T00:54:31.992Z,5.40
2019-04-19T00:57:03.374Z,4.80
2019-04-19T00:59:35.794Z,4.40
2019-04-19T01:02:03.236Z,4.87
2019-04-19T01:04:32.776Z,5.50
2019-04-19T01:07:03.492Z,5.97
2019-04-19T01:09:44.222Z,5.30
2019-04-19T01:12:15.045Z,5.83
2019-04-19T01:14:40.431Z,5.03
2019-04-19T01:17:16.346Z,4.83
2019-04-19T01:19:40.893Z,4.90
2019-04-19T01:22:11.825Z,5.37
2019-04-19T01:24:41.317Z,5.33
2019-04-19T01:27:08.858Z,5.33
2019-04-19T01:29:46.130Z,5.40
2019-04-19T01:32:13.658Z,4.93
2019-04-19T01:34:41.394Z,5.10
2019-04-19T01:37:16.146Z,5.10
2019-04-19T01:40:02.924Z,5.17
2019-04-19T01:42:32.294Z,4.80
2019-04-19T01:45:18.922Z,5.50
2019-04-19T01:47:49.818Z,5.40
2019-04-19T01:50:38.347Z,5.70
2019-04-19T01:53:09.596Z,6.70
2019-04-19T01:55:25.815Z,5.43
2019-04-19T01:57:54.869Z,4.93
2019-04-19T02:00:31.447Z,5.30
2019-04-19T02:02:56.695Z,5.13
2019-04-19T02:05:23.935Z,6.07
2019-04-19T02:07:58.953Z,5.43
2019-04-19T02:11:09.987Z,5.80
2019-04-19T02:13:38.292Z,5.30
2019-04-19T02:16:10.983Z,5.40
2019-04-19T02:18:35.434Z,5.07
2019-04-19T02:21:04.916Z,4.93
2019-04-19T02:23:41.806Z,5.17
2019-04-19T02:26:12.203Z,5.30
2019-04-19T02:28:40.729Z,5.93
2019-04-19T02:31:27.190Z,5.33
2019-04-19T02:34:16.270Z,5.57
2019-04-19T02:36:48.366Z,5.80
2019-04-19T02:39:17.904Z,5.47
2019-04-19T02:44:10.811Z,5.37
2019-04-19T02:46:52.487Z,5.30
2019-04-19T02:51:46.422Z,4.93
2019-04-19T02:54:25.663Z,5.03
2019-04-19T02:57:22.448Z,5.43
2019-04-19T03:05:14.435Z,5.37
2019-04-19T03:07:21.727Z,4.93
2019-04-19T03:09:52.013Z,5.17
2019-04-19T03:12:53.914Z,5.40
2019-04-19T03:15:07.600Z,5.17
2019-04-19T03:17:43.335Z,5.30
2019-04-19T03:20:11.872Z,5.33
2019-04-19T03:22:40.830Z,4.97
2019-04-19T03:25:15.274Z,5.60
2019-04-19T03:27:37.620Z,5.90
2019-04-19T03:30:20.734Z,5.60
2019-04-19T03:33:05.120Z,5.90
2019-04-19T03:35:17.937Z,4.93
2019-04-19T03:38:08.813Z,5.10
2019-04-19T03:40:23.532Z,5.33
2019-04-19T03:43:10.625Z,4.80
2019-04-19T03:45:37.921Z,5.43
2019-04-19T03:50:37.740Z,5.40
2019-04-19T03:53:15.457Z,5.27
2019-04-19T03:55:43.148Z,5.10
2019-04-19T03:58:03.199Z,4.57
2019-04-19T04:00:26.415Z,5.00
2019-04-19T04:02:56.398Z,5.10
2019-04-19T04:05:29.388Z,4.90
2019-04-19T04:08:04.371Z,4.90
2019-04-19T04:10:42.876Z,4.57
2019-04-19T04:13:25.505Z,5.53
2019-04-19T04:16:09.835Z,5.47
2019-04-19T04:18:26.065Z,5.67
2019-04-19T04:20:57.701Z,5.27
2019-04-19T04:23:32.265Z,5.87
2019-04-19T04:26:04.858Z,5.37
2019-04-19T04:28:42.619Z,4.60
2019-04-19T04:31:10.018Z,5.20
2019-04-19T04:33:42.352Z,5.50
2019-04-19T04:36:20.864Z,5.73
2019-04-19T04:38:38.501Z,5.80
2019-04-19T04:41:08.492Z,6.20
2019-04-19T04:43:48.295Z,5.33
2019-04-19T04:46:34.081Z,5.40
2019-04-19T04:49:25.642Z,5.07
2019-04-19T04:51:47.972Z,5.17
2019-04-19T04:54:06.129Z,5.50
2019-04-19T04:56:53.022Z,4.87
2019-04-19T04:59:15.710Z,5.53
2019-04-19T05:01:51.570Z,5.33
2019-04-19T05:04:27.209Z,4.90
2019-04-19T05:07:08.364Z,5.47
2019-04-19T05:09:32.680Z,5.50
2019-04-19T05:12:12.689Z,5.50
2019-04-19T05:14:38.898Z,5.10
2019-04-19T05:17:22.258Z,4.47
2019-04-19T05:19:46.738Z,5.37
2019-04-19T05:22:07.834Z,5.60
2019-04-19T05:24:51.538Z,4.77
2019-04-19T05:27:15.312Z,4.90
2019-04-19T05:29:34.534Z,5.33
2019-04-19T05:32:04.833Z,5.07
2019-04-19T05:34:49.760Z,5.63
2019-04-19T05:37:13.987Z,5.60
2019-04-19T05:39:54.334Z,5.70
2019-04-19T05:42:44.624Z,5.50
2019-04-19T05:45:26.249Z,4.87
2019-04-19T05:47:41.139Z,4.80
2019-04-19T05:50:23.100Z,5.00
2019-04-19T05:52:48.186Z,4.70
2019-04-19T05:55:00.684Z,5.23
2019-04-19T05:57:46.445Z,5.40
2019-04-19T06:00:16.079Z,6.00
2019-04-19T06:02:43.618Z,5.37
2019-04-19T06:05:31.606Z,5.67
2019-04-19T06:07:53.035Z,5.70
2019-04-19T06:10:10.934Z,4.57
2019-04-19T06:12:40.861Z,5.43
2019-04-19T06:15:34.305Z,4.93
2019-04-19T06:18:00.469Z,5.47
2019-04-19T06:20:30.525Z,5.00
2019-04-19T06:23:07.078Z,5.20
2019-04-19T06:25:47.635Z,4.77
2019-04-19T06:30:41.078Z,5.23
2019-04-19T06:33:15.673Z,5.03
2019-04-19T06:35:34.319Z,4.63
2019-04-19T06:37:54.584Z,4.97
2019-04-19T06:40:29.407Z,5.60
2019-04-19T06:43:06.015Z,5.30
2019-04-19T06:45:42.100Z,4.90
2019-04-19T06:48:05.423Z,5.20
2019-04-19T06:50:34.742Z,5.63
2019-04-19T06:52:59.751Z,5.10
2019-04-19T06:55:33.585Z,5.30
2019-04-19T06:58:07.585Z,5.27
2019-04-19T07:00:45.147Z,4.60
2019-04-19T07:03:02.624Z,5.10
2019-04-19T07:05:45.460Z,5.40
2019-04-19T07:08:47.329Z,5.00
2019-04-19T07:10:56.330Z,5.10
2019-04-19T07:13:21.437Z,5.30
2019-04-19T07:16:04.581Z,4.87
2019-04-19T07:18:24.858Z,5.00
2019-04-19T07:21:01.911Z,5.27
2019-04-19T07:23:33.176Z,4.90
2019-04-19T07:26:06.887Z,5.10
2019-04-19T07:28:17.325Z,5.10
2019-04-19T07:30:49.137Z,4.60
2019-04-19T07:33:26.090Z,4.73
2019-04-19T07:36:07.883Z,4.80
2019-04-19T07:38:33.006Z,5.30
2019-04-19T07:41:05.945Z,5.27
2019-04-19T07:43:46.040Z,5.20
2019-04-19T07:46:26.527Z,4.90
2019-04-19T07:48:41.176Z,4.73
2019-04-19T07:51:18.675Z,4.70
2019-04-19T07:53:46.274Z,5.00
2019-04-19T07:56:21.942Z,4.60
2019-04-19T07:59:02.831Z,4.90
2019-04-19T08:01:45.937Z,4.70
2019-04-19T08:04:17.767Z,5.40
2019-04-19T08:09:20.267Z,4.73
2019-04-19T08:29:06.824Z,4.50
2019-04-19T08:31:27.507Z,5.40
2019-04-19T08:33:56.998Z,5.30
2019-04-19T08:36:33.112Z,5.10
2019-04-19T08:39:17.087Z,4.73
2019-04-19T08:41:46.224Z,4.57
2019-04-19T08:44:18.151Z,5.03
2019-04-19T08:46:32.924Z,4.33
2019-04-19T08:49:06.286Z,4.73
2019-04-19T08:51:38.964Z,4.40
2019-04-19T08:54:29.757Z,4.93
2019-04-19T08:56:50.638Z,5.10
2019-04-19T08:59:36.138Z,4.53
2019-04-19T09:02:00.997Z,4.40
2019-04-19T09:04:33.276Z,4.20
2019-04-19T09:09:35.517Z,4.53
2019-04-19T09:12:07.155Z,4.22
2019-04-19T09:14:36.643Z,4.13
2019-04-19T09:17:12.882Z,4.20
2019-04-19T09:19:57.391Z,4.30
2019-04-19T09:22:07.344Z,4.80
2019-04-19T09:24:31.122Z,4.70
2019-04-19T09:27:05.956Z,4.10
2019-04-19T09:29:45.047Z,4.40
2019-04-19T09:32:03.539Z,4.27
2019-04-19T09:34:27.999Z,4.40
2019-04-19T09:37:06.956Z,4.60
2019-04-19T09:39:41.468Z,3.93
2019-04-19T09:42:03.033Z,4.47
2019-04-19T09:44:39.393Z,4.23
2019-04-19T09:47:03.934Z,4.07
2019-04-19T09:49:50.170Z,3.77
2019-04-19T09:52:27.879Z,3.87
2019-04-19T09:55:01.949Z,3.60
2019-04-19T09:57:25.352Z,3.40
2019-04-19T09:59:39.094Z,3.13
2019-04-19T10:02:10.932Z,3.30
2019-04-19T10:04:40.520Z,4.10
2019-04-19T10:07:11.094Z,3.23
2019-04-19T10:09:40.845Z,2.90
2019-04-19T10:12:11.324Z,3.43
2019-04-19T10:14:41.682Z,2.93
2019-04-19T10:17:14.004Z,3.10
2019-04-19T10:19:44.460Z,3.40
2019-04-19T10:22:14.653Z,3.17
2019-04-19T10:24:45.167Z,2.93
2019-04-19T10:27:17.157Z,3.10
2019-04-19T10:29:48.727Z,3.40
2019-04-19T10:32:20.181Z,3.10
2019-04-19T10:34:50.368Z,3.40
2019-04-19T10:37:20.358Z,3.30
2019-04-19T10:39:51.906Z,3.33
2019-04-19T10:42:21.425Z,2.90
2019-04-19T10:44:52.089Z,2.80
2019-04-19T10:47:22.787Z,2.97
2019-04-19T10:49:59.655Z,3.17
2019-04-19T10:52:26.444Z,2.90
2019-04-19T10:54:57.151Z,2.83
2019-04-19T10:57:27.558Z,2.90
2019-04-19T11:00:00.990Z,3.30
2019-04-19T11:02:34.037Z,2.80
2019-04-19T11:05:05.136Z,2.73
2019-04-19T11:07:35.223Z,2.90
2019-04-19T11:10:07.396Z,2.63
2019-04-19T11:12:36.815Z,3.10
2019-04-19T11:15:06.887Z,2.90
2019-04-19T11:17:38.106Z,3.10
2019-04-19T11:20:22.807Z,2.90
2019-04-19T11:22:39.852Z,3.50
2019-04-19T11:25:10.259Z,2.57
2019-04-19T11:27:39.652Z,2.60
2019-04-19T11:30:10.908Z,2.67
2019-04-19T11:32:44.648Z,2.77
2019-04-19T11:35:14.393Z,2.27
2019-04-19T11:37:44.809Z,2.93
2019-04-19T11:40:15.299Z,2.50
2019-04-19T11:42:45.582Z,2.60
2019-04-19T11:45:15.668Z,2.87
2019-04-19T11:47:45.154Z,3.20
2019-04-19T11:50:15.648Z,3.00
2019-04-19T11:52:48.118Z,2.70
2019-04-19T11:55:18.636Z,2.80
2019-04-19T11:57:50.335Z,3.00
2019-04-19T12:00:24.241Z,2.50
2019-04-19T12:02:56.059Z,2.60
2019-04-19T12:05:29.195Z,2.50
2019-04-19T12:07:56.794Z,3.10
2019-04-19T12:10:30.421Z,2.67
2019-04-19T12:12:59.273Z,2.80
2019-04-19T12:15:32.551Z,3.13
2019-04-19T12:18:02.342Z,2.60
2019-04-19T12:20:31.543Z,2.47
2019-04-19T12:23:01.974Z,2.53
2019-04-19T12:25:31.375Z,3.47
2019-04-19T12:28:01.621Z,2.50
2019-04-19T12:30:32.090Z,3.10
2019-04-19T12:33:01.560Z,2.77
2019-04-19T12:35:31.505Z,2.73
2019-04-19T12:38:01.988Z,2.90
2019-04-19T12:40:33.859Z,2.70
2019-04-19T12:43:04.202Z,2.80
2019-04-19T12:45:33.624Z,2.67
2019-04-19T12:48:02.925Z,2.50
2019-04-19T12:50:35.374Z,3.40
2019-04-19T12:53:04.169Z,2.93
2019-04-19T12:55:33.612Z,2.67
2019-04-19T12:58:04.077Z,3.20
2019-04-19T13:00:38.615Z,2.50
2019-04-19T13:03:09.768Z,2.90
2019-04-19T13:05:41.650Z,2.97
2019-04-19T13:08:11.542Z,2.70
2019-04-19T13:10:40.903Z,2.60
2019-04-19T13:13:11.886Z,2.80
2019-04-19T13:15:42.567Z,2.80
2019-04-19T13:18:12.138Z,2.93
2019-04-19T13:20:41.987Z,3.10
2019-04-19T13:23:12.471Z,2.80
2019-04-19T13:25:41.895Z,2.33
2019-04-19T13:28:11.326Z,2.67
2019-04-19T13:30:46.108Z,2.77
2019-04-19T13:33:12.486Z,2.93
2019-04-19T13:35:43.481Z,2.90
2019-04-19T13:38:23.559Z,2.93
2019-04-19T13:41:12.743Z,3.00
2019-04-19T13:43:42.735Z,2.80
2019-04-19T13:46:12.782Z,2.87
2019-04-19T13:48:43.026Z,2.93
2019-04-19T13:51:12.496Z,2.57
2019-04-19T13:53:42.619Z,3.00
2019-04-19T13:56:12.908Z,3.50
2019-04-19T13:58:43.351Z,2.67
2019-04-19T14:01:12.713Z,2.60
2019-04-19T14:03:43.493Z,2.50
2019-04-19T14:06:13.051Z,2.97
2019-04-19T14:08:42.857Z,2.97
2019-04-19T14:11:13.117Z,3.03
2019-04-19T14:13:48.660Z,2.70
2019-04-19T14:16:14.649Z,2.80
2019-04-19T14:18:44.697Z,2.60
2019-04-19T14:21:14.885Z,3.20
2019-04-19T14:23:45.769Z,2.70
2019-04-19T14:26:16.317Z,2.73
2019-04-19T14:28:47.378Z,2.93
2019-04-19T14:31:16.768Z,2.77
2019-04-19T14:33:46.560Z,2.97
2019-04-19T14:36:17.815Z,2.80
2019-04-19T14:38:47.841Z,2.27
2019-04-19T14:41:17.900Z,2.90
2019-04-19T14:43:48.120Z,2.47
2019-04-19T14:46:18.661Z,3.13
2019-04-19T14:48:49.094Z,2.53
2019-04-19T14:51:25.848Z,2.53
2019-04-19T14:53:49.748Z,2.97
2019-04-19T14:56:19.608Z,2.80
2019-04-19T14:58:48.900Z,2.50
2019-04-19T15:01:22.592Z,2.50
2019-04-19T15:04:06.606Z,3.20
2019-04-19T15:06:36.203Z,2.63
2019-04-19T15:09:07.935Z,2.90
2019-04-19T15:11:37.467Z,2.20
2019-04-19T15:14:06.699Z,2.50
2019-04-19T15:16:39.214Z,2.90
2019-04-19T15:19:06.908Z,2.60
2019-04-19T15:21:36.595Z,2.33
2019-04-19T15:24:12.473Z,2.70
2019-04-19T15:26:42.831Z,2.20
2019-04-19T15:29:13.236Z,2.83
2019-04-19T15:31:42.584Z,2.47
2019-04-19T15:34:11.870Z,2.80
2019-04-19T15:36:41.802Z,2.70
2019-04-19T15:39:11.925Z,2.60
2019-04-19T15:41:42.189Z,2.50
2019-04-19T15:44:12.699Z,2.70
2019-04-19T15:46:44.009Z,2.67
2019-04-19T15:49:13.359Z,2.70
2019-04-19T15:51:43.200Z,2.80
2019-04-19T15:54:14.230Z,2.50
2019-04-19T15:56:44.601Z,2.67
2019-04-19T15:59:15.334Z,2.47
2019-04-19T16:01:50.239Z,2.30
2019-04-19T16:04:29.490Z,2.60
2019-04-19T16:07:05.993Z,2.60
2019-04-19T16:09:43.282Z,2.53
2019-04-19T16:12:15.429Z,2.10
2019-04-19T16:14:45.974Z,2.33
2019-04-19T16:17:15.878Z,2.73
2019-04-19T16:19:45.208Z,2.50
2019-04-19T16:22:14.527Z,2.37
2019-04-19T16:24:45.090Z,2.20
2019-04-19T16:27:15.417Z,1.77
2019-04-19T16:29:49.316Z,2.20
2019-04-19T16:32:16.847Z,2.00
2019-04-19T16:34:47.011Z,2.00
2019-04-19T16:37:16.836Z,1.93
2019-04-19T16:39:46.214Z,2.07
2019-04-19T16:42:16.719Z,1.77
2019-04-19T16:44:46.079Z,1.73
2019-04-19T16:47:17.369Z,1.80
2019-04-19T16:49:46.828Z,1.60
2019-04-19T16:52:18.498Z,1.60
2019-04-19T16:54:50.202Z,1.70
2019-04-19T16:57:25.125Z,1.37
2019-04-19T16:59:52.232Z,1.50
2019-04-19T17:02:22.743Z,1.83
2019-04-19T17:04:52.695Z,1.43
2019-04-19T17:07:22.665Z,1.70
2019-04-19T17:09:52.243Z,1.77
2019-04-19T17:12:22.517Z,1.70
2019-04-19T17:14:54.802Z,1.83
2019-04-19T17:17:26.749Z,1.97
2019-04-19T17:19:57.768Z,1.70
2019-04-19T17:22:37.148Z,1.77
2019-04-19T17:25:08.899Z,1.90
2019-04-19T17:27:41.086Z,1.70
2019-04-19T17:30:14.428Z,1.87
2019-04-19T17:32:44.285Z,1.80
2019-04-19T17:35:16.425Z,1.40
2019-04-19T17:37:47.871Z,1.60
2019-04-19T17:40:18.554Z,1.97
2019-04-19T17:42:48.900Z,1.90
2019-04-19T17:45:19.919Z,1.67
2019-04-19T17:47:50.326Z,1.87
2019-04-19T17:50:20.664Z,2.00
2019-04-19T17:52:50.680Z,1.77
2019-04-19T17:55:27.380Z,1.83
2019-04-19T17:57:51.497Z,1.70
2019-04-19T18:00:22.092Z,2.30
2019-04-19T18:02:51.379Z,1.80
2019-04-19T18:05:20.599Z,2.10
2019-04-19T18:07:52.029Z,2.30
2019-04-19T18:10:23.192Z,1.90
2019-04-19T18:12:52.947Z,2.10
2019-04-19T18:15:23.585Z,1.97
2019-04-19T18:17:55.574Z,2.20
2019-04-19T18:20:25.265Z,2.77
2019-04-19T18:23:04.925Z,2.27
2019-04-19T18:25:32.058Z,2.00
2019-04-19T18:27:58.544Z,2.33
2019-04-19T18:30:29.422Z,2.40
2019-04-19T18:33:00.487Z,2.40
2019-04-19T18:35:31.906Z,2.43
2019-04-19T18:38:00.970Z,2.23
2019-04-19T18:40:31.172Z,2.80
2019-04-19T18:43:16.059Z,2.47
2019-04-19T18:45:36.868Z,3.17
2019-04-19T18:48:03.270Z,3.20
2019-04-19T18:50:37.171Z,2.80
2019-04-19T18:53:14.078Z,2.80
2019-04-19T18:55:41.192Z,3.10
2019-04-19T18:58:06.615Z,3.37
2019-04-19T19:00:41.023Z,3.43
2019-04-19T19:03:09.280Z,3.10
2019-04-19T19:05:45.241Z,3.30
2019-04-19T19:08:18.584Z,3.57
2019-04-19T19:10:46.585Z,4.60
2019-04-19T19:13:12.246Z,3.90
2019-04-19T19:15:46.862Z,7.27
2019-04-19T19:18:13.020Z,4.73
2019-04-19T19:20:51.795Z,4.07
2019-04-19T19:23:25.648Z,4.23
2019-04-19T19:25:55.178Z,3.83
2019-04-19T19:28:20.023Z,7.07
2019-04-19T19:30:48.991Z,4.00
2019-04-19T19:33:22.270Z,3.80
2019-04-19T19:35:55.226Z,3.70
2019-04-19T19:38:26.201Z,7.63
2019-04-19T19:41:07.222Z,7.73
2019-04-19T19:43:41.120Z,4.73
2019-04-19T19:46:18.234Z,4.67
2019-04-19T19:48:55.478Z,5.57
2019-04-19T19:51:13.093Z,5.60
2019-04-19T19:53:50.529Z,4.80
2019-04-19T19:56:30.343Z,4.47
2019-04-19T19:58:36.647Z,3.33
2019-04-19T20:01:11.478Z,4.23
2019-04-19T20:03:37.645Z,6.43
2019-04-19T20:06:05.042Z,5.13
2019-04-19T20:08:39.014Z,10.37
2019-04-19T20:11:04.114Z,8.07
2019-04-19T20:13:41.096Z,5.10
2019-04-19T20:16:08.188Z,6.10
2019-04-19T20:18:39.617Z,4.50
2019-04-19T20:21:09.780Z,3.73
2019-04-19T20:23:54.142Z,4.23
2019-04-19T20:26:16.918Z,4.63
2019-04-19T20:28:39.587Z,5.73
2019-04-19T20:31:09.328Z,5.40
2019-04-19T20:33:47.785Z,5.97
2019-04-19T20:36:10.687Z,4.70
2019-04-19T20:38:48.073Z,4.30
2019-04-19T20:41:12.246Z,3.60
2019-04-19T20:43:56.335Z,4.23
2019-04-19T20:46:17.415Z,4.37
2019-04-19T20:48:45.887Z,4.10
2019-04-19T20:51:33.544Z,4.23
2019-04-19T20:54:00.421Z,3.50
2019-04-19T20:58:59.638Z,3.93
2019-04-19T21:01:28.796Z,3.33
2019-04-19T21:04:01.645Z,4.20
2019-04-19T21:06:33.191Z,3.60
2019-04-19T21:09:01.271Z,3.60
2019-04-19T21:11:38.337Z,3.70
2019-04-19T21:14:03.888Z,3.57
2019-04-19T21:16:35.382Z,3.80
2019-04-19T21:19:07.942Z,3.47
2019-04-19T21:21:41.038Z,3.70
2019-04-19T21:24:10.666Z,4.07
2019-04-19T21:26:39.542Z,3.37
2019-04-19T21:29:13.893Z,4.07
2019-04-19T21:31:45.915Z,3.20
2019-04-19T21:34:12.546Z,3.70
2019-04-19T21:36:50.298Z,3.87
2019-04-19T21:39:15.457Z,2.93
2019-04-19T21:41:45.838Z,3.40
2019-04-19T21:44:19.505Z,3.50
2019-04-19T21:46:46.229Z,3.57
2019-04-19T21:49:19.839Z,4.10
2019-04-19T21:51:48.200Z,3.80
2019-04-19T21:54:18.750Z,4.10
2019-04-19T21:56:52.636Z,4.03
2019-04-19T21:59:22.544Z,3.73
2019-04-19T22:01:51.315Z,4.57
2019-04-19T22:04:21.327Z,3.97
2019-04-19T22:06:57.786Z,4.23
2019-04-19T22:09:24.160Z,4.50
2019-04-19T22:11:54.241Z,4.40
2019-04-19T22:14:29.322Z,4.70
2019-04-19T22:16:56.659Z,4.17
2019-04-19T22:19:30.225Z,4.80
2019-04-19T22:21:58.603Z,4.33
2019-04-19T22:24:33.665Z,4.57
2019-04-19T22:26:59.634Z,5.60
2019-04-19T22:29:31.429Z,3.90
2019-04-19T22:32:05.700Z,4.47
2019-04-19T22:34:32.632Z,4.87
2019-04-19T22:37:03.555Z,4.50
2019-04-19T22:39:33.938Z,4.27
2019-04-19T22:42:04.487Z,4.20
2019-04-19T22:44:34.606Z,4.37
2019-04-19T22:47:04.016Z,4.77
2019-04-19T22:49:38.807Z,4.53
2019-04-19T22:52:04.777Z,4.00
2019-04-19T22:54:34.964Z,4.40
2019-04-19T22:57:13.583Z,4.37
2019-04-19T22:59:37.770Z,4.70
2019-04-19T23:02:16.565Z,4.80
2019-04-19T23:04:49.196Z,4.80
2019-04-19T23:07:16.986Z,3.97
2019-04-19T23:09:46.453Z,4.90
2019-04-19T23:12:16.867Z,4.70
2019-04-19T23:14:50.543Z,5.30
2019-04-19T23:17:28.077Z,4.37
2019-04-19T23:19:55.409Z,5.10
2019-04-19T23:22:31.022Z,4.20
2019-04-19T23:24:59.688Z,4.73
2019-04-19T23:27:34.635Z,4.70
2019-04-19T23:30:01.542Z,4.30
2019-04-19T23:32:32.106Z,4.63
2019-04-19T23:35:00.135Z,4.60
2019-04-19T23:37:30.334Z,5.30
2019-04-19T23:39:59.591Z,4.60
2019-04-19T23:42:31.122Z,5.27
2019-04-19T23:45:02.518Z,5.23
2019-04-19T23:47:37.780Z,4.57
2019-04-19T23:50:02.287Z,4.73
2019-04-19T23:52:32.983Z,4.80
2019-04-19T23:55:02.474Z,5.43
2019-04-19T23:57:39.594Z,5.23
